Century Venus — 3FXD2 — position and weather

sailwx.info

Track history (hours):
 
Tides and Currents Weather Stations Pressure Air Temp Water Temp Dewpoint Dewpoint Depression Visibility Wind Speed Wind Dir Waves Ship Positions

Century Venus

Last reported at 2015-Feb-26 14:19 UTC. Time now 2015-Feb-26 23:17 UTC.
Position N 27°38' W 082°39'.

Length 137 m; draft 7.9 m.

Type: Cargo ship. MMSI: 357069000.

Date/timePositionNaut miles runAvg speedWind from/ knotsBaromVisibWave heightAir tempDewpointWater temp
2015-Feb-26 14:19N 27°38' W 082°39'911.2
2015-Feb-26 13:33N 27°44' W 082°32'1010.1
2015-Feb-26 12:33N 27°53' W 082°26'3 2.9
2015-Feb-26 11:32N 27°56' W 082°26'0 0.0
2015-Feb-26 10:32N 27°56' W 082°26'0 0.0
2015-Feb-26 09:32N 27°56' W 082°26'0 0.0
2015-Feb-26 08:32N 27°56' W 082°26'0 0.0
2015-Feb-26 07:32N 27°56' W 082°26'0 0.0
2015-Feb-26 06:32N 27°56' W 082°26'0 0.0
2015-Feb-26 05:29N 27°56' W 082°26'0 0.0
2015-Feb-26 04:32N 27°56' W 082°26'0 0.0
2015-Feb-26 03:32N 27°56' W 082°26'0 0.0
2015-Feb-26 02:32N 27°56' W 082°26'0 0.0
2015-Feb-26 01:32N 27°56' W 082°26'0 0.0
2015-Feb-26 00:32N 27°56' W 082°26'0 0.0
2015-Feb-25 23:32N 27°56' W 082°26'0 0.0
2015-Feb-25 22:32N 27°56' W 082°26'0 0.0
2015-Feb-25 21:32N 27°56' W 082°26'0 0.0
2015-Feb-25 20:32N 27°56' W 082°26'0 0.0
2015-Feb-25 19:32N 27°56' W 082°26'0 0.0
2015-Feb-25 18:32N 27°56' W 082°26'0 0.0
2015-Feb-25 17:32N 27°56' W 082°26'0 0.0
2015-Feb-25 16:32N 27°56' W 082°26'0 0.0
2015-Feb-25 15:32N 27°56' W 082°26'0 0.0
2015-Feb-25 14:32N 27°56' W 082°26'0 0.0
2015-Feb-25 13:32N 27°56' W 082°26'0 0.0
2015-Feb-25 12:32N 27°56' W 082°26'0 0.0
2015-Feb-25 11:32N 27°56' W 082°26'0 0.0
2015-Feb-25 10:32N 27°56' W 082°26'0 0.0
2015-Feb-25 09:32N 27°56' W 082°26'0 0.0
2015-Feb-25 08:32N 27°56' W 082°26'0 0.0
2015-Feb-25 07:32N 27°56' W 082°26'2 2.2
2015-Feb-25 06:33N 27°53' W 082°26'9 9.5
2015-Feb-25 05:33N 27°45' W 082°31'35 2.1
2015-Feb-24 12:28N 27°32' W 083°08'1010.9
2015-Feb-24 11:31N 27°22' W 083°13'1212.0
2015-Feb-24 10:33N 27°13' W 083°21'1412.5
2015-Feb-24 09:24N 27°01' W 083°30'2812.1
2015-Feb-24 07:05N 26°43' W 083°54'812.4
2015-Feb-24 06:28N 26°36' W 083°52'1412.9
2015-Feb-24 05:22N 26°22' W 083°49'  
Track history (hours):
 
Tides and Currents Weather Stations Pressure Air Temp Water Temp Dewpoint Dewpoint Depression Visibility Wind Speed Wind Dir Waves Ship Positions

Century Venus

Last reported at 2015-Feb-26 14:19 UTC. Time now 2015-Feb-26 23:17 UTC.
Position N 27°38' W 082°39'.

Length 137 m; draft 7.9 m.

Type: Cargo ship. MMSI: 357069000.

Date/timePositionNaut miles runAvg speedWind from/ knotsBaromVisibWave heightAir tempDewpointWater temp
2015-Feb-26 14:19N 27°38' W 082°39'911.2
2015-Feb-26 13:33N 27°44' W 082°32'1010.1
2015-Feb-26 12:33N 27°53' W 082°26'3 2.9
2015-Feb-26 11:32N 27°56' W 082°26'0 0.0
2015-Feb-26 10:32N 27°56' W 082°26'0 0.0
2015-Feb-26 09:32N 27°56' W 082°26'0 0.0
2015-Feb-26 08:32N 27°56' W 082°26'0 0.0
2015-Feb-26 07:32N 27°56' W 082°26'0 0.0
2015-Feb-26 06:32N 27°56' W 082°26'0 0.0
2015-Feb-26 05:29N 27°56' W 082°26'0 0.0
2015-Feb-26 04:32N 27°56' W 082°26'0 0.0
2015-Feb-26 03:32N 27°56' W 082°26'0 0.0
2015-Feb-26 02:32N 27°56' W 082°26'0 0.0
2015-Feb-26 01:32N 27°56' W 082°26'0 0.0
2015-Feb-26 00:32N 27°56' W 082°26'0 0.0
2015-Feb-25 23:32N 27°56' W 082°26'0 0.0
2015-Feb-25 22:32N 27°56' W 082°26'0 0.0
2015-Feb-25 21:32N 27°56' W 082°26'0 0.0
2015-Feb-25 20:32N 27°56' W 082°26'0 0.0
2015-Feb-25 19:32N 27°56' W 082°26'0 0.0
2015-Feb-25 18:32N 27°56' W 082°26'0 0.0
2015-Feb-25 17:32N 27°56' W 082°26'0 0.0
2015-Feb-25 16:32N 27°56' W 082°26'0 0.0
2015-Feb-25 15:32N 27°56' W 082°26'0 0.0
2015-Feb-25 14:32N 27°56' W 082°26'0 0.0
2015-Feb-25 13:32N 27°56' W 082°26'0 0.0
2015-Feb-25 12:32N 27°56' W 082°26'0 0.0
2015-Feb-25 11:32N 27°56' W 082°26'0 0.0
2015-Feb-25 10:32N 27°56' W 082°26'0 0.0
2015-Feb-25 09:32N 27°56' W 082°26'0 0.0
2015-Feb-25 08:32N 27°56' W 082°26'0 0.0
2015-Feb-25 07:32N 27°56' W 082°26'2 2.2
2015-Feb-25 06:33N 27°53' W 082°26'9 9.5
2015-Feb-25 05:33N 27°45' W 082°31'35 2.1
2015-Feb-24 12:28N 27°32' W 083°08'1010.9
2015-Feb-24 11:31N 27°22' W 083°13'1212.0
2015-Feb-24 10:33N 27°13' W 083°21'1412.5
2015-Feb-24 09:24N 27°01' W 083°30'2812.1
2015-Feb-24 07:05N 26°43' W 083°54'812.4
2015-Feb-24 06:28N 26°36' W 083°52'1412.9
2015-Feb-24 05:22N 26°22' W 083°49'  

Dump ship's entire track history